Time;durP1;ratioP1;P1;durP2;ratioP2;P2;SDS_P1;SDS_P2;PMS_P1;PMS_P2;Temp;Humidity;BMP_temperature;BMP_pressure;BME280_temperature;BME280_humidity;BME280_pressure;Samples;Min_cycle;Max_cycle;Signal;HPM_P1;HPM_P2
2023/03/03 00:01:58;;;;;;;92.75;48.33;;;;;;;1.70;100.00;100094.03;5032741;28;20461;-76
2023/03/03 00:04:23;;;;;;;92.45;48.33;;;;;;;1.63;100.00;100078.66;5032301;28;20032;-76
2023/03/03 00:06:49;;;;;;;98.45;51.03;;;;;;;1.74;100.00;100108.56;5032895;28;20045;-77
2023/03/03 00:09:14;;;;;;;104.30;54.38;;;;;;;1.75;100.00;100105.13;5032467;28;20037;-76
2023/03/03 00:11:39;;;;;;;100.30;50.63;;;;;;;1.70;100.00;100085.47;5032577;28;20030;-76
2023/03/03 00:14:20;;;;;;;114.22;54.95;;;;;;;1.55;100.00;100062.41;5032508;28;20037;-76
2023/03/03 00:16:48;;;;;;;93.53;50.25;;;;;;;1.43;100.00;100058.16;5032346;28;20025;-77
2023/03/03 00:19:19;;;;;;;95.00;50.28;;;;;;;1.55;100.00;100083.81;5032511;28;20469;-77
2023/03/03 00:21:46;;;;;;;106.50;52.05;;;;;;;1.54;100.00;100076.13;5032466;28;20029;-76
2023/03/03 00:24:15;;;;;;;95.55;48.95;;;;;;;1.69;100.00;100101.75;5032194;28;20029;-77
2023/03/03 00:26:44;;;;;;;92.65;49.42;;;;;;;1.43;100.00;100059.03;5032469;28;20025;-76
2023/03/03 00:29:29;;;;;;;100.07;48.30;;;;;;;1.49;100.00;100096.66;5032044;28;20035;-76
2023/03/03 00:32:11;;;;;;;103.57;50.00;;;;;;;1.13;100.00;100025.75;5032381;28;20029;-76
2023/03/03 00:34:36;;;;;;;92.93;48.97;;;;;;;1.44;100.00;100068.44;5032091;28;20034;-76
2023/03/03 00:37:02;;;;;;;99.03;47.47;;;;;;;1.30;100.00;100083.00;5032278;28;20075;-76
2023/03/03 00:39:35;;;;;;;94.20;48.83;;;;;;;1.46;100.00;100096.66;5031853;28;20040;-77
2023/03/03 00:42:03;;;;;;;95.90;48.55;;;;;;;1.32;100.00;100060.78;5032105;28;20384;-76
2023/03/03 00:44:42;;;;;;;122.35;59.35;;;;;;;1.56;100.00;100090.66;5031941;28;20033;-77
2023/03/03 00:47:28;;;;;;;87.95;46.35;;;;;;;1.28;100.00;100091.59;5031960;28;20389;-76
2023/03/03 00:50:28;;;;;;;83.47;42.63;;;;;;;1.22;100.00;100092.44;5031764;28;20229;-77
2023/03/03 00:53:04;;;;;;;83.47;42.08;;;;;;;1.33;100.00;100092.41;5031893;28;20413;-76
2023/03/03 00:55:31;;;;;;;73.90;39.72;;;;;;;1.29;100.00;100055.66;5031835;28;20535;-76
2023/03/03 00:57:56;;;;;;;72.40;38.80;;;;;;;1.17;100.00;100045.41;5031953;28;20026;-76
2023/03/03 01:00:21;;;;;;;75.72;39.92;;;;;;;1.42;100.00;100069.28;5031632;28;20109;-76
2023/03/03 01:02:47;;;;;;;76.93;41.55;;;;;;;1.09;100.00;100022.34;5032050;28;20029;-76
2023/03/03 01:05:15;;;;;;;71.13;38.33;;;;;;;1.37;100.00;100066.75;5032139;28;20021;-77
2023/03/03 01:07:41;;;;;;;84.45;42.95;;;;;;;1.20;100.00;100037.72;5033410;28;20025;-76
2023/03/03 01:10:07;;;;;;;72.75;37.75;;;;;;;1.20;100.00;100059.09;5036008;28;20087;-76
2023/03/03 01:12:32;;;;;;;79.65;39.22;;;;;;;0.90;100.00;100020.66;5035913;28;20091;-76
2023/03/03 01:14:57;;;;;;;70.22;38.33;;;;;;;1.10;100.00;100020.66;5035692;28;20496;-76
2023/03/03 01:17:23;;;;;;;78.85;41.08;;;;;;;1.24;100.00;100047.13;5035533;28;20029;-76
2023/03/03 01:19:48;;;;;;;74.25;39.90;;;;;;;1.17;100.00;100012.06;5035679;28;20087;-76
2023/03/03 01:22:14;;;;;;;79.75;41.90;;;;;;;1.46;100.00;100042.75;5035829;28;20083;-77
2023/03/03 01:24:39;;;;;;;74.00;39.55;;;;;;;1.40;100.00;100007.72;5035369;28;20501;-76
2023/03/03 01:27:05;;;;;;;73.38;38.72;;;;;;;1.44;100.00;100006.00;5035763;28;20030;-76
2023/03/03 01:29:30;;;;;;;79.95;40.58;;;;;;;1.43;100.00;100000.00;5035278;28;20524;-77
2023/03/03 01:31:55;;;;;;;77.60;38.92;;;;;;;1.62;100.00;100028.16;5034155;28;20469;-76
2023/03/03 01:34:21;;;;;;;71.40;36.80;;;;;;;1.53;100.00;100002.53;5035270;28;20029;-77
2023/03/03 01:36:46;;;;;;;68.13;37.28;;;;;;;1.56;100.00;99990.53;5035608;28;20026;-76
2023/03/03 01:39:12;;;;;;;70.75;39.72;;;;;;;1.51;100.00;99994.81;5035420;28;20433;-76
2023/03/03 01:41:38;;;;;;;73.10;39.42;;;;;;;1.61;100.00;100018.75;5035237;28;20026;-77
2023/03/03 01:44:03;;;;;;;69.05;36.60;;;;;;;1.55;100.00;99993.94;5035331;28;20485;-76
2023/03/03 01:46:28;;;;;;;72.95;39.63;;;;;;;1.64;100.00;99998.19;5034980;28;20029;-77
2023/03/03 01:49:23;;;;;;;71.18;39.95;;;;;;;1.64;100.00;100004.16;5035340;28;20026;-76
2023/03/03 01:51:56;;;;;;;69.82;37.50;;;;;;;1.56;100.00;99987.97;4993381;28;20073;-76
2023/03/03 01:54:40;;;;;;;74.45;39.15;;;;;;;1.63;100.00;100005.03;4993062;28;20528;-76
2023/03/03 01:57:15;;;;;;;71.75;38.03;;;;;;;1.69;100.00;99999.91;4993327;28;20042;-77
2023/03/03 01:59:46;;;;;;;74.05;39.63;;;;;;;1.51;100.00;99966.59;4993049;28;20066;-76
2023/03/03 02:02:12;;;;;;;65.33;37.50;;;;;;;1.54;100.00;99968.31;4993273;28;20045;-76
2023/03/03 02:04:38;;;;;;;68.50;38.47;;;;;;;1.36;100.00;99949.56;4992997;28;20027;-76
2023/03/03 02:07:10;;;;;;;68.22;37.42;;;;;;;1.57;100.00;99986.25;4993141;28;20069;-76
2023/03/03 02:09:47;;;;;;;73.65;39.22;;;;;;;1.52;100.00;99981.16;4992650;28;20049;-77
2023/03/03 02:12:16;;;;;;;70.80;37.67;;;;;;;1.54;100.00;99983.69;4993113;28;20498;-76
2023/03/03 02:14:41;;;;;;;68.90;37.97;;;;;;;1.69;100.00;100005.03;4992621;28;20034;-76
2023/03/03 02:17:06;;;;;;;66.88;37.58;;;;;;;1.75;100.00;100015.25;4993229;28;20621;-77
2023/03/03 02:19:46;;;;;;;71.57;39.50;;;;;;;1.56;100.00;99985.41;4992695;28;20533;-76
2023/03/03 02:22:17;;;;;;;74.43;40.17;;;;;;;1.68;100.00;100023.00;4992891;28;20046;-76
2023/03/03 02:24:50;;;;;;;72.40;37.93;;;;;;;1.53;100.00;99997.41;4992526;28;20530;-76
2023/03/03 02:27:15;;;;;;;72.80;39.03;;;;;;;1.49;100.00;99994.00;4992761;28;20281;-76
2023/03/03 02:29:41;;;;;;;64.55;38.30;;;;;;;1.53;100.00;99993.13;5030091;28;20048;-76
2023/03/03 02:32:06;;;;;;;69.38;36.33;;;;;;;1.50;100.00;99988.84;5034377;28;20037;-76
2023/03/03 02:34:45;;;;;;;65.55;36.45;;;;;;;1.36;100.00;99967.53;5034071;28;20044;-76
2023/03/03 02:37:10;;;;;;;64.25;36.55;;;;;;;1.64;100.00;100021.28;5034499;28;20031;-76
2023/03/03 02:39:36;;;;;;;61.70;34.63;;;;;;;1.17;100.00;100006.94;5034167;28;20017;-76
2023/03/03 02:42:07;;;;;;;63.80;35.92;;;;;;;1.37;100.00;100047.94;5034343;28;20029;-76
2023/03/03 02:44:33;;;;;;;;;;;;;;;1.36;100.00;100048.78;5034701;28;20037;-76
2023/03/03 02:46:58;;;;;;;58.88;32.50;;;;;;;1.13;100.00;100029.16;5034112;28;20383;-76
2023/03/03 02:49:27;;;;;;;51.97;30.92;;;;;;;1.06;100.00;100019.78;5034007;28;20037;-77
2023/03/03 02:51:53;;;;;;;58.25;32.28;;;;;;;1.25;100.00;100028.28;5034199;28;20026;-76
2023/03/03 02:54:21;;;;;;;59.95;33.08;;;;;;;1.26;100.00;100012.03;5034092;28;20044;-76
2023/03/03 02:56:46;;;;;;;55.05;30.85;;;;;;;1.22;100.00;100000.94;5033768;28;20029;-76
2023/03/03 02:59:12;;;;;;;50.95;28.80;;;;;;;1.25;100.00;100013.75;5033882;28;20042;-77
2023/03/03 03:01:37;;;;;;;51.20;28.98;;;;;;;1.11;100.00;100017.22;5033558;28;20079;-76
2023/03/03 03:04:12;;;;;;;49.70;26.70;;;;;;;1.21;100.00;100037.69;5034036;28;20074;-76
2023/03/03 03:06:38;;;;;;;53.08;29.08;;;;;;;1.17;100.00;100025.72;5047916;28;20120;-76
2023/03/03 03:09:05;;;;;;;54.13;28.30;;;;;;;1.13;100.00;100016.34;5033641;28;20189;-76
2023/03/03 03:11:31;;;;;;;52.28;29.05;;;;;;;1.29;100.00;100034.28;5033558;28;20025;-76
2023/03/03 03:13:56;;;;;;;48.60;28.25;;;;;;;1.27;100.00;100015.47;5033633;28;20083;-76
2023/03/03 03:16:22;;;;;;;55.90;29.52;;;;;;;1.20;100.00;99984.69;5032422;28;20025;-77
2023/03/03 03:18:49;;;;;;;47.78;28.13;;;;;;;1.39;100.00;100017.97;5033475;28;20034;-77
2023/03/03 03:21:15;;;;;;;51.95;29.27;;;;;;;1.39;100.00;100007.69;5033630;28;20075;-76
2023/03/03 03:23:40;;;;;;;52.47;28.05;;;;;;;1.28;100.00;99974.41;5033408;28;20112;-77
2023/03/03 03:26:06;;;;;;;51.65;28.95;;;;;;;1.36;100.00;99990.63;5033338;28;20057;-76
2023/03/03 03:28:32;;;;;;;49.20;26.90;;;;;;;1.28;100.00;99992.34;5033039;28;20033;-76
2023/03/03 03:30:57;;;;;;;47.35;25.50;;;;;;;1.21;99.93;99988.94;5033041;28;20030;-77
2023/03/03 03:33:24;;;;;;;48.00;26.30;;;;;;;1.30;99.88;99995.75;5033577;28;20033;-76
2023/03/03 03:35:49;;;;;;;54.97;29.20;;;;;;;1.40;100.00;100012.84;5033236;28;20029;-76
2023/03/03 03:38:15;;;;;;;51.78;27.45;;;;;;;1.27;99.80;99993.22;5033310;28;20032;-76
2023/03/03 03:40:41;;;;;;;48.50;27.02;;;;;;;1.30;99.89;100008.59;5032915;28;20018;-76
2023/03/03 03:43:07;;;;;;;48.20;26.90;;;;;;;1.33;99.87;100012.88;5033295;28;20033;-76
2023/03/03 03:45:33;;;;;;;49.08;25.50;;;;;;;1.17;100.00;99999.22;5033047;28;20076;-76
2023/03/03 03:47:58;;;;;;;53.45;27.38;;;;;;;1.33;100.00;100026.56;5033114;28;20021;-76
2023/03/03 03:50:23;;;;;;;52.45;28.02;;;;;;;1.30;100.00;100026.56;5033095;28;20099;-76
2023/03/03 03:52:49;;;;;;;51.28;27.17;;;;;;;1.16;100.00;100000.09;5032826;28;20026;-76
2023/03/03 03:55:14;;;;;;;58.45;29.95;;;;;;;1.26;100.00;100019.72;5032859;28;20021;-76
2023/03/03 03:57:40;;;;;;;55.88;28.38;;;;;;;1.25;100.00;100012.88;5032493;28;20030;-77
2023/03/03 04:00:07;;;;;;;56.25;28.63;;;;;;;1.22;100.00;99998.38;5032919;28;20025;-76
2023/03/03 04:02:33;;;;;;;51.83;27.15;;;;;;;1.40;100.00;100030.81;5032828;28;20393;-76
2023/03/03 04:04:59;;;;;;;53.25;27.70;;;;;;;1.27;100.00;100011.19;5032785;28;20108;-76
2023/03/03 04:07:24;;;;;;;50.15;26.77;;;;;;;1.17;100.00;100012.06;5032655;28;20379;-76
2023/03/03 04:09:49;;;;;;;45.47;25.85;;;;;;;1.24;100.00;100029.16;5032384;28;20070;-76
2023/03/03 04:12:15;;;;;;;48.10;26.83;;;;;;;1.27;100.00;100041.97;5032461;28;20373;-76
2023/03/03 04:14:40;;;;;;;45.90;25.23;;;;;;;1.08;100.00;100027.47;5032409;28;20532;-76
2023/03/03 04:17:05;;;;;;;42.13;23.80;;;;;;;1.10;100.00;100021.50;5032662;28;20025;-76
2023/03/03 04:19:31;;;;;;;40.10;21.77;;;;;;;1.30;100.00;100059.06;5032414;28;20105;-76
2023/03/03 04:21:56;;;;;;;43.83;24.23;;;;;;;1.12;100.00;100034.31;5031126;28;20030;-76
2023/03/03 04:24:21;;;;;;;43.50;23.98;;;;;;;1.10;100.00;100038.59;5032272;28;20045;-76
2023/03/03 04:26:47;;;;;;;42.15;22.95;;;;;;;1.00;100.00;100030.03;5032132;28;20026;-76
2023/03/03 04:29:12;;;;;;;42.55;22.25;;;;;;;1.05;100.00;100059.09;5032407;28;20120;-76
2023/03/03 04:31:37;;;;;;;47.17;25.08;;;;;;;0.94;100.00;100030.06;5032222;28;20105;-76
2023/03/03 04:34:03;;;;;;;49.22;23.40;;;;;;;0.67;100.00;100039.47;5032400;28;20036;-76
2023/03/03 04:36:28;;;;;;;39.83;21.65;;;;;;;0.71;100.00;100051.44;5032151;28;20083;-76
2023/03/03 04:38:54;;;;;;;40.10;22.65;;;;;;;0.81;100.00;100044.63;5032223;28;20045;-76
2023/03/03 04:41:19;;;;;;;39.63;20.70;;;;;;;0.65;100.00;100030.09;5031888;28;20611;-76
2023/03/03 04:43:45;;;;;;;44.50;23.08;;;;;;;0.75;100.00;100047.16;5031686;28;20116;-77
2023/03/03 04:46:10;;;;;;;44.38;21.75;;;;;;;0.78;100.00;100051.44;5032131;28;20188;-76
2023/03/03 04:48:35;;;;;;;45.17;22.20;;;;;;;0.64;100.00;100049.75;5031992;28;20025;-76
2023/03/03 04:51:01;;;;;;;44.13;22.20;;;;;;;0.46;100.00;100016.41;5032189;28;20026;-76
2023/03/03 04:53:26;;;;;;;44.70;22.70;;;;;;;0.60;100.00;100026.69;5031929;28;20030;-76
2023/03/03 04:55:52;;;;;;;45.42;23.67;;;;;;;0.74;100.00;100048.88;5031705;28;20453;-77
2023/03/03 04:58:18;;;;;;;40.88;21.23;;;;;;;0.61;100.00;100013.84;5031906;28;20059;-76
2023/03/03 05:00:53;;;;;;;46.30;23.70;;;;;;;0.57;100.00;100011.31;5031884;28;20065;-76
2023/03/03 05:03:18;;;;;;;46.72;23.33;;;;;;;0.68;100.00;100001.91;5032047;28;20373;-77
2023/03/03 05:05:45;;;;;;;47.67;23.23;;;;;;;0.81;100.00;100008.72;5031638;28;20029;-76
2023/03/03 05:08:10;;;;;;;46.80;24.08;;;;;;;0.93;100.00;100024.09;5031966;28;20034;-76
2023/03/03 05:10:36;;;;;;;45.20;22.67;;;;;;;1.04;100.00;100043.72;5031505;28;20373;-76
2023/03/03 05:13:02;;;;;;;46.45;25.08;;;;;;;0.91;100.00;100035.19;5031956;28;20033;-76
2023/03/03 05:15:27;;;;;;;45.45;23.40;;;;;;;0.88;100.00;100007.84;5031686;28;20501;-77
2023/03/03 05:17:55;;;;;;;41.88;21.75;;;;;;;1.04;100.00;100039.44;5031886;28;20033;-75
2023/03/03 05:20:22;;;;;;;42.53;21.90;;;;;;;1.04;100.00;100046.28;5031799;28;20026;-76
2023/03/03 05:22:48;;;;;;;38.03;21.35;;;;;;;1.07;100.00;100038.59;5031479;28;20052;-76
2023/03/03 05:25:13;;;;;;;39.65;21.65;;;;;;;1.04;100.00;100020.63;5031654;28;20459;-77
2023/03/03 05:27:39;;;;;;;43.72;22.63;;;;;;;0.97;100.00;100012.13;5034194;28;20082;-76
2023/03/03 05:30:05;;;;;;;36.35;19.52;;;;;;;1.08;99.91;100037.72;5051584;28;20029;-76
2023/03/03 05:32:31;;;;;;;37.13;18.98;;;;;;;0.88;99.45;100030.91;5051562;28;20032;-76
2023/03/03 05:34:56;;;;;;;37.42;19.52;;;;;;;0.68;99.16;99999.34;5051265;28;20108;-76
2023/03/03 05:37:23;;;;;;;36.05;19.20;;;;;;;0.97;99.45;100045.47;5051435;28;20070;-77
2023/03/03 05:39:48;;;;;;;37.42;19.33;;;;;;;0.93;99.81;100036.91;5051039;28;20029;-76
2023/03/03 05:42:14;;;;;;;34.58;18.25;;;;;;;0.84;99.15;100012.97;5051549;28;20427;-76
2023/03/03 05:44:39;;;;;;;32.35;17.05;;;;;;;0.91;99.09;100025.78;5051191;28;20108;-76
2023/03/03 05:47:04;;;;;;;32.20;16.58;;;;;;;0.97;98.20;100040.34;5049607;28;20072;-76
2023/03/03 05:49:30;;;;;;;27.63;16.25;;;;;;;0.79;98.41;100032.66;5051110;28;20021;-77
2023/03/03 05:51:55;;;;;;;33.67;16.45;;;;;;;0.67;98.88;100026.66;5051048;28;20021;-77
2023/03/03 05:54:20;;;;;;;30.23;15.82;;;;;;;0.78;98.66;100033.50;5053719;28;20090;-76
2023/03/03 05:56:46;;;;;;;32.60;16.40;;;;;;;0.72;98.68;100019.84;5054764;28;20021;-77
2023/03/03 05:59:11;;;;;;;33.78;17.70;;;;;;;0.77;98.23;100021.56;5055318;28;20035;-77
2023/03/03 06:01:36;;;;;;;31.95;17.35;;;;;;;0.78;98.49;100036.06;5054912;28;20020;-77
2023/03/03 06:04:02;;;;;;;29.67;16.83;;;;;;;0.91;98.61;100054.00;5054988;28;20079;-76
2023/03/03 06:06:28;;;;;;;39.17;18.90;;;;;;;0.90;98.27;100059.13;5054860;28;20035;-76
2023/03/03 06:08:53;;;;;;;38.85;19.08;;;;;;;0.81;98.42;100059.16;5054479;28;20443;-76
2023/03/03 06:11:18;;;;;;;36.80;18.13;;;;;;;0.70;98.83;100030.94;5055062;28;20036;-76
2023/03/03 06:13:44;;;;;;;37.33;20.15;;;;;;;0.78;98.88;100061.72;5054565;28;20025;-76
2023/03/03 06:16:09;;;;;;;34.95;18.50;;;;;;;0.58;99.51;100042.03;5054678;28;20025;-76
2023/03/03 06:18:35;;;;;;;36.63;19.48;;;;;;;0.80;99.34;100080.50;5055035;28;20029;-77
2023/03/03 06:21:00;;;;;;;35.88;19.15;;;;;;;0.71;99.25;100083.91;5054272;28;20377;-76
2023/03/03 06:23:25;;;;;;;38.72;19.08;;;;;;;0.60;99.34;100096.75;5054426;28;20070;-76
2023/03/03 06:25:52;;;;;;;39.13;19.02;;;;;;;0.69;99.28;100078.81;5054081;28;20075;-76
2023/03/03 06:28:17;;;;;;;37.60;18.20;;;;;;;0.57;99.62;100042.06;5054447;28;20028;-77
2023/03/03 06:30:43;;;;;;;38.15;19.33;;;;;;;0.77;99.57;100073.69;5054544;28;20033;-76
2023/03/03 06:33:08;;;;;;;37.47;19.50;;;;;;;0.68;99.38;100051.47;5054429;28;20112;-76
2023/03/03 06:35:33;;;;;;;36.80;19.20;;;;;;;0.77;99.55;100060.84;5054301;28;20036;-76
2023/03/03 06:37:59;;;;;;;38.20;19.08;;;;;;;0.79;99.46;100054.00;5053932;28;20036;-76
2023/03/03 06:40:24;;;;;;;38.17;20.20;;;;;;;0.93;98.64;100083.06;5054377;28;20021;-76
2023/03/03 06:42:49;;;;;;;42.13;20.27;;;;;;;0.82;98.44;100061.69;5054046;28;20028;-76
2023/03/03 06:45:15;;;;;;;40.35;20.45;;;;;;;0.94;98.68;100078.81;5054272;28;20024;-77
2023/03/03 06:47:40;;;;;;;38.20;20.20;;;;;;;0.80;98.20;100055.75;5053870;28;20032;-76
2023/03/03 06:50:07;;;;;;;37.60;19.38;;;;;;;0.94;98.36;100079.66;5054068;28;20029;-76
2023/03/03 06:52:32;;;;;;;38.10;19.52;;;;;;;0.81;98.08;100066.84;5053953;28;20036;-76
2023/03/03 06:55:00;;;;;;;37.83;20.95;;;;;;;0.83;98.32;100065.13;5054535;28;20116;-76
2023/03/03 06:57:26;;;;;;;41.13;24.63;;;;;;;0.86;97.40;100075.38;5054036;28;20029;-77
2023/03/03 06:59:55;;;;;;;40.35;22.08;;;;;;;1.04;97.68;100106.13;5053601;28;20078;-77
2023/03/03 07:02:21;;;;;;;35.65;20.63;;;;;;;0.97;97.83;100101.88;5053870;28;20104;-76
2023/03/03 07:04:46;;;;;;;40.03;21.60;;;;;;;1.07;97.38;100113.84;5052606;28;20029;-76
2023/03/03 07:07:24;;;;;;;38.83;21.35;;;;;;;0.79;97.42;100077.09;5053641;28;20029;-76
2023/03/03 07:09:53;;;;;;;35.55;19.38;;;;;;;0.97;97.20;100097.63;5053490;28;20064;-76
2023/03/03 07:12:21;;;;;;;32.92;18.77;;;;;;;0.98;96.83;100106.16;5053936;28;20036;-76
2023/03/03 07:15:23;;;;;;;32.47;17.20;;;;;;;1.00;96.39;100119.81;5053453;28;20029;-77
2023/03/03 07:17:51;;;;;;;;;;;;;;;0.95;97.01;100113.84;5031374;28;20047;-76
2023/03/03 07:20:33;;;;;;;45.22;22.23;;;;;;;0.98;96.62;100111.28;5031041;28;20004;-77
2023/03/03 07:22:59;;;;;;;37.40;16.90;;;;;;;0.18;96.74;100093.25;5030887;28;20567;-76
2023/03/03 07:25:32;;;;;;;40.22;20.70;;;;;;;-0.10;99.82;100111.94;5030887;28;20137;-76
2023/03/03 07:28:33;;;;;;;33.95;17.08;;;;;;;-0.25;100.00;100130.66;5030548;28;20073;-76
2023/03/03 07:30:58;;;;;;;52.28;25.95;;;;;;;-0.49;100.00;100099.81;4952669;29;20090;-77
2023/03/03 07:33:24;;;;;;;42.03;20.30;;;;;;;-0.37;100.00;100110.13;4952961;29;20122;-76
2023/03/03 07:35:50;;;;;;;43.28;20.70;;;;;;;-0.65;100.00;100086.91;4952580;29;20116;-76
2023/03/03 07:38:37;;;;;;;49.13;23.95;;;;;;;-0.53;100.00;100127.09;4952629;29;20035;-77
2023/03/03 07:41:10;;;;;;;51.42;23.95;;;;;;;-0.75;100.00;100097.97;4952405;29;20102;-76
2023/03/03 07:43:47;;;;;;;57.10;25.67;;;;;;;-0.82;100.00;100096.19;4952681;29;20039;-77
2023/03/03 07:46:42;;;;;;;44.28;22.77;;;;;;;-0.37;100.00;100133.16;4952416;29;20118;-76
2023/03/03 07:49:22;;;;;;;50.22;24.50;;;;;;;-0.36;100.00;100124.63;4895348;29;20072;-76
2023/03/03 07:51:52;;;;;;;45.90;25.05;;;;;;;-0.67;100.00;100093.75;4895402;29;20048;-77
2023/03/03 07:54:39;;;;;;;48.28;23.70;;;;;;;-0.41;100.00;100118.63;4928903;29;20100;-76
2023/03/03 07:57:10;;;;;;;55.88;26.25;;;;;;;-0.28;100.00;100131.47;4933049;29;20032;-76
2023/03/03 07:59:51;;;;;;;49.33;26.83;;;;;;;-0.73;100.00;100073.22;4933172;29;20055;-76
2023/03/03 08:02:36;;;;;;;48.97;25.27;;;;;;;-0.36;100.00;100130.59;4933195;29;20479;-76
2023/03/03 08:05:20;;;;;;;46.67;24.17;;;;;;;-0.21;100.00;100124.69;4973203;28;20034;-77
2023/03/03 08:07:45;;;;;;;48.55;24.35;;;;;;;-0.35;100.00;100118.63;5010176;28;20046;-76
2023/03/03 08:10:53;;;;;;;49.80;24.08;;;;;;;-0.36;100.00;100117.78;5010510;28;20029;-76
2023/03/03 08:13:38;;;;;;;52.92;26.30;;;;;;;-0.26;100.00;100078.56;4990745;28;20574;-76
2023/03/03 08:16:09;;;;;;;55.13;25.05;;;;;;;-0.30;100.00;100111.84;4990234;28;20527;-77
2023/03/03 08:18:46;;;;;;;51.58;24.75;;;;;;;-0.37;100.00;100115.22;4990699;28;20146;-76
2023/03/03 08:21:12;;;;;;;62.85;30.38;;;;;;;-0.12;100.00;100088.03;4990686;28;20568;-76
2023/03/03 08:23:38;;;;;;;69.55;32.42;;;;;;;-0.34;100.00;100084.50;4990691;28;20042;-76
2023/03/03 08:26:03;;;;;;;78.20;35.03;;;;;;;-0.71;100.00;100061.31;5009367;28;20179;-77
2023/03/03 08:28:28;;;;;;;66.10;33.15;;;;;;;-0.04;100.00;100117.94;5013255;28;20477;-76
2023/03/03 08:30:54;;;;;;;62.33;32.15;;;;;;;-0.08;100.00;100118.78;5029594;28;20114;-77
2023/03/03 08:33:19;;;;;;;65.10;30.30;;;;;;;-0.22;100.00;100114.44;5029794;28;20030;-76
2023/03/03 08:35:45;;;;;;;57.25;27.85;;;;;;;-0.38;100.00;100085.34;5029775;28;20048;-76
2023/03/03 08:38:14;;;;;;;61.17;29.13;;;;;;;0.03;100.00;100077.84;5029864;28;20076;-76
2023/03/03 08:40:39;;;;;;;77.10;32.80;;;;;;;-0.15;100.00;100083.75;5029832;28;20029;-76
2023/03/03 08:43:06;;;;;;;61.38;29.70;;;;;;;-0.14;100.00;100121.31;5028302;28;20398;-76
2023/03/03 08:45:32;;;;;;;64.07;30.05;;;;;;;0.18;100.00;100126.56;5028275;28;20090;-76
2023/03/03 08:47:58;;;;;;;61.75;30.05;;;;;;;0.38;100.00;100116.38;5029160;28;20396;-77
2023/03/03 08:50:25;;;;;;;65.50;32.08;;;;;;;-0.06;100.00;100105.97;5031563;28;20400;-76
2023/03/03 08:52:51;;;;;;;61.97;30.50;;;;;;;-0.14;100.00;100112.75;5031465;28;20116;-76
2023/03/03 08:55:17;;;;;;;72.45;33.33;;;;;;;0.32;100.00;100130.84;5031874;28;20028;-76
2023/03/03 08:57:43;;;;;;;74.75;35.78;;;;;;;-0.02;100.00;100116.22;5031887;28;20037;-76
2023/03/03 09:00:12;;;;;;;67.57;32.65;;;;;;;-0.04;100.00;100142.69;5031859;28;20025;-77
2023/03/03 09:02:38;;;;;;;74.38;35.92;;;;;;;0.16;100.00;100140.19;5031707;28;20091;-76
2023/03/03 09:05:04;;;;;;;66.25;33.67;;;;;;;0.20;100.00;100129.09;5031739;28;20037;-76
2023/03/03 09:07:29;;;;;;;71.65;33.72;;;;;;;-0.01;100.00;100133.28;5031872;28;20025;-76
2023/03/03 09:09:55;;;;;;;79.80;35.42;;;;;;;-0.15;100.00;100118.75;5031538;28;20447;-76
2023/03/03 09:12:49;;;;;;;70.13;33.85;;;;;;;0.32;100.00;100144.50;5031735;28;20057;-76
2023/03/03 09:15:20;;;;;;;72.95;33.65;;;;;;;0.09;100.00;100147.03;5009519;28;20042;-77
2023/03/03 09:17:46;;;;;;;72.30;34.58;;;;;;;-0.07;100.00;100150.34;5025776;28;20025;-76
2023/03/03 09:20:37;;;;;;;78.68;35.10;;;;;;;0.24;100.00;100124.00;5029131;28;20041;-76
2023/03/03 09:23:32;;;;;;;77.28;36.50;;;;;;;0.18;100.00;100144.47;5029207;28;20111;-77
2023/03/03 09:26:28;;;;;;;72.40;36.40;;;;;;;0.13;100.00;100158.13;5028769;28;20049;-76
2023/03/03 09:29:05;;;;;;;79.43;36.40;;;;;;;0.29;100.00;100128.28;5030782;28;20029;-77
2023/03/03 09:31:38;;;;;;;72.55;35.72;;;;;;;0.08;100.00;100139.31;5033434;28;20389;-76
2023/03/03 09:34:18;;;;;;;65.75;34.92;;;;;;;0.08;100.00;100147.00;5032910;28;20069;-76
2023/03/03 09:36:43;;;;;;;57.40;28.02;;;;;;;0.52;100.00;100142.00;5033164;28;20675;-77
2023/03/03 09:39:30;;;;;;;53.88;27.70;;;;;;;0.35;100.00;100154.78;5032813;28;20136;-76
2023/03/03 09:42:24;;;;;;;59.70;27.42;;;;;;;0.21;100.00;100161.53;5032784;28;20030;-77
2023/03/03 09:45:16;;;;;;;59.35;28.20;;;;;;;0.65;100.00;100158.25;5032844;28;20037;-77
2023/03/03 09:48:06;;;;;;;63.60;30.40;;;;;;;1.03;100.00;100155.75;4974067;28;20090;-77
2023/03/03 09:50:50;;;;;;;54.78;28.92;;;;;;;0.61;100.00;100162.53;4974051;28;20077;-77
2023/03/03 09:54:08;;;;;;;61.92;28.38;;;;;;;0.24;100.00;100138.50;4974019;28;20046;-76
2023/03/03 09:56:37;;;;;;;62.60;29.63;;;;;;;0.74;100.00;100159.13;4973933;28;20396;-76
2023/03/03 09:59:20;;;;;;;59.65;29.08;;;;;;;0.48;100.00;100165.91;4973615;28;20129;-76
2023/03/03 10:01:54;;;;;;;57.47;27.60;;;;;;;0.34;100.00;100162.44;4973681;28;20065;-76
2023/03/03 10:04:47;;;;;;;56.58;27.70;;;;;;;0.71;100.00;100163.38;4973666;28;20034;-76
2023/03/03 10:07:33;;;;;;;54.70;27.00;;;;;;;1.06;100.00;100152.34;4973434;28;20038;-77
2023/03/03 10:10:33;;;;;;;58.90;28.55;;;;;;;0.91;100.00;100156.59;4973550;28;20027;-76
2023/03/03 10:13:28;;;;;;;63.42;29.63;;;;;;;0.59;100.00;100164.25;4979703;28;20044;-76
2023/03/03 10:16:09;;;;;;;58.47;27.30;;;;;;;0.80;100.00;100166.00;4896885;29;20049;-76
2023/03/03 10:18:55;;;;;;;52.00;26.10;;;;;;;1.17;100.00;100166.00;4897201;29;20080;-76
2023/03/03 10:21:34;;;;;;;49.22;25.92;;;;;;;0.97;100.00;100069.41;4897270;29;20037;-77
2023/03/03 10:24:13;;;;;;;51.95;24.20;;;;;;;0.81;100.00;100128.38;4902487;29;20042;-77
2023/03/03 10:27:13;;;;;;;51.33;27.02;;;;;;;0.75;100.00;100168.53;4939055;29;20391;-76
2023/03/03 10:30:00;;;;;;;52.67;28.08;;;;;;;1.03;100.00;100147.19;4954036;29;20035;-76
2023/03/03 10:32:28;;;;;;;58.50;28.95;;;;;;;0.80;100.00;100163.44;4954004;29;20027;-77
2023/03/03 10:35:19;;;;;;;54.20;28.40;;;;;;;0.68;100.00;100158.28;4953945;29;20043;-76
2023/03/03 10:37:50;;;;;;;56.15;28.30;;;;;;;1.07;100.00;100147.19;4953863;29;20032;-76
2023/03/03 10:40:27;;;;;;;58.50;28.65;;;;;;;1.41;100.00;100149.72;4952356;28;20227;-77
2023/03/03 10:43:02;;;;;;;52.05;26.48;;;;;;;1.45;100.00;100110.38;4953986;29;20035;-77
2023/03/03 10:45:52;;;;;;;53.58;27.80;;;;;;;1.31;99.63;100140.34;4953692;29;20090;-77
2023/03/03 10:48:41;;;;;;;49.03;24.80;;;;;;;0.97;100.00;100140.38;4953433;29;20035;-77
2023/03/03 10:51:32;;;;;;;42.63;22.70;;;;;;;1.25;100.00;100139.47;4953493;29;20114;-77
2023/03/03 10:54:19;;;;;;;45.60;24.25;;;;;;;1.63;98.92;100135.13;5025036;28;20113;-77
2023/03/03 10:57:06;;;;;;;38.17;21.05;;;;;;;1.79;96.42;100100.84;5034300;28;20032;-76
2023/03/03 10:59:39;;;;;;;37.67;19.58;;;;;;;1.71;95.68;100118.84;5034155;28;20057;-76
2023/03/03 11:02:21;;;;;;;38.00;20.50;;;;;;;1.33;97.17;100134.34;5033745;28;20025;-76
2023/03/03 11:04:46;;;;;;;;;;;;;;;1.26;98.42;100124.94;5034269;28;20045;-76
2023/03/03 11:07:23;;;;;;;35.40;20.27;;;;;;;1.68;98.28;100126.53;5033793;28;19913;-76
2023/03/03 11:10:20;;;;;;;37.85;21.80;;;;;;;1.91;96.00;100098.22;5033903;28;20029;-77
2023/03/03 11:12:56;;;;;;;37.72;21.30;;;;;;;2.25;95.03;100113.47;5011456;28;20042;-76
2023/03/03 11:15:45;;;;;;;39.50;22.08;;;;;;;1.69;96.31;100122.28;5011401;28;20046;-76
2023/03/03 11:18:31;;;;;;;43.42;22.02;;;;;;;1.25;97.70;100125.78;5011235;28;20445;-77
2023/03/03 11:21:06;;;;;;;45.33;23.02;;;;;;;1.59;98.74;100130.84;5011223;28;20041;-77
2023/03/03 11:23:57;;;;;;;44.60;24.25;;;;;;;1.78;97.23;100094.00;5011493;28;20046;-76
2023/03/03 11:26:32;;;;;;;42.65;24.50;;;;;;;2.06;96.36;100093.88;5011318;28;20104;-76
2023/03/03 11:29:35;;;;;;;43.28;23.40;;;;;;;2.00;95.41;100123.88;5010852;28;20037;-76
2023/03/03 11:32:17;;;;;;;40.00;22.55;;;;;;;1.46;97.23;100122.34;4972005;28;20558;-76